Cestohowa, Texas
Current Conditions -  °F | °C
As of 7:15 PM on Saturday 25 Oct 2014 (Local Time) from KPEZ Reporting Station
Clear Clear  
Wind Chill: 80°   Ceiling: Unl
Heat Index: 80°   Visibility: 7mi
Dew Point: 55°   Wind: 3mph
Humidity: 42%   Direction: 100°E
Pressure: 30.08"   Gusts: NA
Location:  28.933°N, 98.0642°W
Report Text: KPEZ 260015Z AUTO 10003KT 7SM CLR 27/13 A3008 RMK AO2 T02650127
Loading
Personal Weather Stations






























Interactive Weather Map
Tropical Storm Tracking
New forecast layout! Learn more

10-Day Weather Forecast

Advertisements
Track Severe Weather on mobile